Bad Endorf/Jolling Airport


Codes: EDPC/
Name: Bad Endorf/Jolling Airport
City: Bad Endorf
Country: Germany
Elevation: 1690 ft.
Website:

Photos at Bad Endorf/Jolling Airport


   Photos courtesy of SpottingLog. You can add your own sightings and photos by signing up for a free trial today.



No photos found.

Weather at Bad Endorf/Jolling Airport


Time (UTC)DescriptionTempratureWindCloud coverageVisibilityPressureHumidity
21-Jun-2024 12:00Broken Clouds25°C11 mph, NW74%10000m1015hPa61%
21-Jun-2024 15:00Light Rain24°C4 mph, NE81%10000m1014hPa68%
21-Jun-2024 18:00Light Rain21°C7 mph, NW87%10000m1014hPa84%
21-Jun-2024 21:00Moderate Rain14°C11 mph, SW100%10000m1017hPa94%
22-Jun-2024 00:00Moderate Rain13°C9 mph, S100%8922m1018hPa98%
22-Jun-2024 03:00Moderate Rain12°C4 mph, SW100%10000m1018hPa97%
22-Jun-2024 06:00Overcast Clouds13°C4 mph, SW100%10000m1018hPa94%
22-Jun-2024 09:00Scattered Clouds20°C4 mph, W43%10000m1016hPa60%
22-Jun-2024 12:00Light Rain21°C4 mph, NW52%10000m1014hPa57%
22-Jun-2024 15:00Light Rain20°C9 mph, NW75%10000m1013hPa69%
22-Jun-2024 18:00Moderate Rain13°C16 mph, W87%482m1015hPa97%
22-Jun-2024 21:00Heavy Intensity Rain12°C4 mph, SW100%10000m1018hPa99%
23-Jun-2024 00:00Moderate Rain11°C4 mph, SW100%6678m1018hPa99%
23-Jun-2024 03:00Light Rain11°C2 mph, SW100%10000m1018hPa97%
23-Jun-2024 06:00Overcast Clouds12°C0 mph, N100%10000m1018hPa94%
23-Jun-2024 09:00Overcast Clouds15°C2 mph, NE100%10000m1018hPa78%
23-Jun-2024 12:00Light Rain17°C9 mph, NE100%10000m1017hPa73%
23-Jun-2024 15:00Overcast Clouds18°C7 mph, NE99%10000m1016hPa73%
23-Jun-2024 18:00Overcast Clouds16°C4 mph, NE95%10000m1016hPa84%
23-Jun-2024 21:00Overcast Clouds13°C2 mph, E100%10000m1018hPa96%
24-Jun-2024 00:00Broken Clouds12°C2 mph, E76%10000m1018hPa97%
24-Jun-2024 03:00Broken Clouds13°C2 mph, E81%10000m1017hPa95%
24-Jun-2024 06:00Broken Clouds16°C7 mph, E84%10000m1017hPa87%
24-Jun-2024 09:00Broken Clouds19°C9 mph, NE76%10000m1016hPa70%
24-Jun-2024 12:00Broken Clouds21°C11 mph, NE83%10000m1015hPa67%
24-Jun-2024 15:00Overcast Clouds22°C9 mph, NE94%10000m1014hPa63%
24-Jun-2024 18:00Broken Clouds20°C7 mph, E82%10000m1014hPa77%
24-Jun-2024 21:00Overcast Clouds17°C7 mph, NE99%10000m1014hPa82%
25-Jun-2024 00:00Overcast Clouds15°C7 mph, NE98%10000m1014hPa87%
25-Jun-2024 03:00Overcast Clouds13°C4 mph, E96%10000m1013hPa94%
25-Jun-2024 06:00Overcast Clouds16°C4 mph, NE95%10000m1013hPa86%
25-Jun-2024 09:00Broken Clouds19°C4 mph, NE84%10000m1011hPa76%
25-Jun-2024 12:00Overcast Clouds23°C7 mph, NE88%10000m1009hPa65%
25-Jun-2024 15:00Light Rain22°C4 mph, NE98%10000m1008hPa78%
25-Jun-2024 18:00Moderate Rain19°C4 mph, SW99%10000m1007hPa90%
25-Jun-2024 21:00Light Rain16°C7 mph, SW100%10000m1008hPa98%
26-Jun-2024 00:00Overcast Clouds15°C4 mph, SW100%10000m1009hPa98%
26-Jun-2024 03:00Light Rain13°C4 mph, S100%10000m1009hPa97%
26-Jun-2024 06:00Light Rain16°C2 mph, S100%10000m1010hPa92%
26-Jun-2024 09:00Light Rain18°C2 mph, W99%10000m1010hPa83%